Pagrindinis puslapis
METAR-TAF:

METAR-TAF

Oro uostai :

Nueva Locha, Ekvadoras

platuma: 00-05-33N, ilguma: 076-52-10W, Aukštis: 299 m

Dabartinis oras

Ataskaita buvo paskelbta 41 minutes, ne 22:00 UTC
Vėjas 6 kt iš Šiaurės/Šiaurės Rytų
Temperatūra 30°C
Drėgmė 66%
Slėgis 1010 hPa
Matomumas 10 km arba daugiau
Išsisklaidę debesys ne aukštis 2000 ft

METAR: SENL 212200Z 03006KT 9999 SCT020 30/23 Q1010 RMK A2984

Laikas: 17:41 (22:41 UTC)


TAF: trūkstamas

Orai ataskaitas ir orų prognozės (METAR, TAF).

turimą stotys yra geltonos ir raudonos taškus žemėlapyje.

Perkelti pele per norėdami pamatyti stoties vardą.

Tada spustelėkite, norėdami matyti oro stebėjimo ir prognozės.

Norėdami pakeisti žemėlapį: spustelėkite ant žalios mygtukų su juodo kryžiaus žemyn,; žalią mygtuką su brūkšneliu, jei norite nutolinti; arba žalių rodyklių gretimoms žemėlapius.


METAR-TAF: